createdAt,value
2023-05-04T00:00:44.131Z,506.00
2023-05-04T00:01:45.222Z,516.00
2023-05-04T00:02:44.303Z,516.00
2023-05-04T00:03:44.204Z,516.00
2023-05-04T00:04:44.111Z,517.00
2023-05-04T00:05:44.036Z,511.00
2023-05-04T00:06:44.099Z,507.00
2023-05-04T00:07:44.031Z,515.00
2023-05-04T00:08:43.975Z,520.00
2023-05-04T00:09:44.188Z,517.00
2023-05-04T00:10:44.152Z,508.00
2023-05-04T00:11:44.443Z,512.00
2023-05-04T00:12:45.683Z,510.00
2023-05-04T00:13:43.978Z,505.00
2023-05-04T00:14:43.934Z,517.00
2023-05-04T00:15:44.072Z,508.00
2023-05-04T00:16:44.180Z,523.00
2023-05-04T00:17:44.082Z,524.00
2023-05-04T00:18:43.966Z,519.00
2023-05-04T00:19:43.908Z,514.00
2023-05-04T00:20:46.731Z,520.00
2023-05-04T00:21:44.082Z,514.00
2023-05-04T00:22:44.001Z,525.00
2023-05-04T00:23:43.991Z,516.00
2023-05-04T00:24:44.023Z,523.00
2023-05-04T00:25:44.013Z,509.00
2023-05-04T00:26:44.003Z,518.00
2023-05-04T00:27:43.990Z,509.00
2023-05-04T00:28:43.975Z,519.00
2023-05-04T00:29:43.916Z,512.00
2023-05-04T00:30:43.902Z,520.00
2023-05-04T00:31:43.845Z,523.00
2023-05-04T00:32:44.063Z,518.00
2023-05-04T00:33:43.838Z,525.00
2023-05-04T00:34:43.766Z,515.00
2023-05-04T00:35:43.782Z,516.00
2023-05-04T00:36:43.924Z,516.00
2023-05-04T00:37:43.972Z,521.00
2023-05-04T00:38:44.782Z,517.00
2023-05-04T00:39:43.829Z,525.00
2023-05-04T00:40:43.772Z,512.00
2023-05-04T00:41:44.217Z,509.00
2023-05-04T00:42:43.841Z,522.00
2023-05-04T00:43:43.748Z,521.00
2023-05-04T00:44:43.755Z,512.00
2023-05-04T00:45:43.862Z,520.00
2023-05-04T00:46:43.888Z,518.00
2023-05-04T00:47:43.737Z,511.00
2023-05-04T00:48:43.860Z,520.00
2023-05-04T00:49:43.707Z,522.00
2023-05-04T00:50:43.787Z,525.00
2023-05-04T00:51:43.677Z,510.00
2023-05-04T00:52:43.710Z,523.00
2023-05-04T00:53:44.686Z,513.00
2023-05-04T00:54:43.839Z,518.00
2023-05-04T00:55:43.668Z,506.00
2023-05-04T00:59:22.264Z,500.00
2023-05-04T01:00:23.088Z,500.00
2023-05-04T01:01:22.063Z,500.00
2023-05-04T01:02:21.857Z,500.00
2023-05-04T01:03:21.648Z,500.00
2023-05-04T01:04:21.625Z,502.00
2023-05-04T01:05:21.601Z,503.00
2023-05-04T01:06:21.776Z,497.00
2023-05-04T01:07:21.610Z,499.00
2023-05-04T01:08:21.527Z,511.00
2023-05-04T01:09:21.637Z,517.00
2023-05-04T01:10:21.569Z,512.00
2023-05-04T01:11:21.628Z,516.00
2023-05-04T01:12:21.643Z,514.00
2023-05-04T01:13:21.731Z,503.00
2023-05-04T01:14:21.679Z,517.00
2023-05-04T01:15:21.527Z,514.00
2023-05-04T01:16:21.660Z,514.00
2023-05-04T01:17:21.544Z,515.00
2023-05-04T01:18:21.588Z,516.00
2023-05-04T01:19:21.588Z,522.00
2023-05-04T01:20:21.592Z,510.00
2023-05-04T01:21:21.555Z,518.00
2023-05-04T01:22:21.461Z,514.00
2023-05-04T01:23:21.516Z,521.00
2023-05-04T01:24:21.556Z,518.00
2023-05-04T01:25:21.438Z,518.00
2023-05-04T01:26:21.623Z,520.00
2023-05-04T01:27:22.014Z,520.00
2023-05-04T01:28:21.450Z,515.00
2023-05-04T01:29:21.471Z,517.00
2023-05-04T01:30:21.517Z,515.00
2023-05-04T01:31:21.475Z,516.00
2023-05-04T01:32:21.531Z,516.00
2023-05-04T01:33:21.448Z,513.00
2023-05-04T01:34:21.462Z,514.00
2023-05-04T01:35:22.435Z,515.00
2023-05-04T01:36:21.555Z,513.00
2023-05-04T01:37:21.496Z,514.00
2023-05-04T01:38:21.392Z,507.00
2023-05-04T01:39:21.444Z,518.00
2023-05-04T01:40:21.444Z,513.00
2023-05-04T01:41:21.373Z,511.00
2023-05-04T01:42:21.414Z,518.00
2023-05-04T01:43:21.333Z,508.00
2023-05-04T01:44:22.339Z,518.00
2023-05-04T01:45:21.393Z,512.00
2023-05-04T01:46:21.457Z,512.00
2023-05-04T01:47:21.324Z,515.00
2023-05-04T01:48:21.296Z,517.00
2023-05-04T01:49:21.330Z,512.00
2023-05-04T01:50:21.262Z,517.00
2023-05-04T01:51:21.340Z,516.00
2023-05-04T01:52:21.304Z,518.00
2023-05-04T01:53:21.361Z,517.00
2023-05-04T01:54:22.394Z,515.00
2023-05-04T01:55:21.328Z,512.00
2023-05-04T01:56:21.281Z,513.00
2023-05-04T01:57:21.237Z,516.00
2023-05-04T01:58:21.221Z,516.00
2023-05-04T01:59:21.248Z,509.00
2023-05-04T02:00:21.354Z,510.00
2023-05-04T02:01:21.517Z,515.00
2023-05-04T02:02:21.264Z,509.00
2023-05-04T02:03:21.520Z,518.00
2023-05-04T02:04:21.351Z,513.00
2023-05-04T02:05:21.294Z,516.00
2023-05-04T02:06:21.345Z,504.00
2023-05-04T02:07:21.270Z,504.00
2023-05-04T02:08:21.244Z,508.00
2023-05-04T02:09:21.464Z,516.00
2023-05-04T02:10:21.453Z,504.00
2023-05-04T02:11:22.288Z,510.00
2023-05-04T02:12:21.324Z,515.00
2023-05-04T02:13:21.382Z,515.00
2023-05-04T02:14:21.422Z,512.00
2023-05-04T02:15:21.263Z,511.00
2023-05-04T02:16:22.601Z,511.00
2023-05-04T02:17:21.485Z,515.00
2023-05-04T02:18:21.421Z,510.00
2023-05-04T02:19:21.410Z,507.00
2023-05-04T02:20:22.379Z,506.00
2023-05-04T02:21:21.272Z,507.00
2023-05-04T02:22:21.414Z,519.00
2023-05-04T02:23:21.261Z,511.00
2023-05-04T02:24:21.513Z,509.00
2023-05-04T02:25:21.352Z,515.00
2023-05-04T02:26:22.358Z,512.00
2023-05-04T02:27:21.414Z,509.00
2023-05-04T02:28:21.470Z,505.00
2023-05-04T02:29:21.335Z,514.00
2023-05-04T02:30:21.477Z,511.00
2023-05-04T02:31:21.387Z,518.00
2023-05-04T02:32:21.642Z,519.00
2023-05-04T02:33:21.448Z,523.00
2023-05-04T02:34:21.649Z,514.00
2023-05-04T02:35:21.542Z,516.00
2023-05-04T02:36:21.413Z,514.00
2023-05-04T02:37:22.496Z,521.00
2023-05-04T02:38:21.484Z,521.00
2023-05-04T02:39:22.517Z,513.00
2023-05-04T02:40:21.374Z,516.00
2023-05-04T02:41:21.437Z,514.00
2023-05-04T02:42:21.523Z,517.00
2023-05-04T02:43:21.504Z,516.00
2023-05-04T02:44:21.541Z,504.00
2023-05-04T02:45:21.447Z,513.00
2023-05-04T02:46:21.647Z,514.00
2023-05-04T02:47:21.631Z,511.00
2023-05-04T02:48:21.416Z,515.00
2023-05-04T02:49:21.495Z,515.00
2023-05-04T02:50:21.418Z,515.00
2023-05-04T02:51:21.531Z,517.00
2023-05-04T02:52:21.421Z,511.00
2023-05-04T02:53:21.626Z,516.00
2023-05-04T02:54:21.408Z,507.00
2023-05-04T02:55:21.484Z,509.00
2023-05-04T02:56:21.642Z,513.00
2023-05-04T02:57:21.443Z,507.00
2023-05-04T02:58:21.628Z,508.00
2023-05-04T02:59:21.621Z,515.00
2023-05-04T03:00:23.515Z,509.00
2023-05-04T03:01:21.638Z,510.00
2023-05-04T03:02:21.796Z,519.00
2023-05-04T03:03:21.483Z,506.00
2023-05-04T03:04:21.568Z,514.00
2023-05-04T03:05:21.532Z,504.00
2023-05-04T03:06:21.536Z,506.00
2023-05-04T03:07:21.707Z,511.00
2023-05-04T03:08:21.612Z,515.00
2023-05-04T03:09:21.597Z,519.00
2023-05-04T03:10:21.584Z,515.00
2023-05-04T03:11:21.625Z,506.00
2023-05-04T03:12:21.796Z,515.00
2023-05-04T03:13:21.573Z,515.00
2023-05-04T03:14:21.506Z,522.00
2023-05-04T03:15:22.523Z,517.00
2023-05-04T03:16:21.589Z,517.00
2023-05-04T03:17:21.789Z,513.00
2023-05-04T03:18:21.575Z,517.00
2023-05-04T03:19:22.573Z,521.00
2023-05-04T03:20:22.687Z,513.00
2023-05-04T03:21:21.696Z,521.00
2023-05-04T03:22:21.810Z,518.00
2023-05-04T03:23:21.816Z,518.00
2023-05-04T03:24:21.540Z,524.00
2023-05-04T03:25:21.549Z,515.00
2023-05-04T03:26:21.694Z,518.00
2023-05-04T03:27:21.609Z,518.00
2023-05-04T03:28:21.597Z,512.00
2023-05-04T03:29:21.579Z,517.00
2023-05-04T03:30:21.611Z,515.00
2023-05-04T03:31:21.695Z,515.00
2023-05-04T03:32:21.881Z,518.00
2023-05-04T03:33:21.768Z,515.00
2023-05-04T03:34:21.809Z,514.00
2023-05-04T03:35:24.962Z,519.00
2023-05-04T03:36:21.777Z,510.00
2023-05-04T03:37:21.722Z,507.00
2023-05-04T03:38:21.584Z,516.00
2023-05-04T03:39:21.662Z,514.00
2023-05-04T03:40:21.624Z,520.00
2023-05-04T03:41:21.583Z,515.00
2023-05-04T03:42:22.776Z,509.00
2023-05-04T03:43:21.672Z,510.00
2023-05-04T03:44:21.740Z,514.00
2023-05-04T03:45:21.694Z,516.00
2023-05-04T03:46:22.730Z,509.00
2023-05-04T03:47:21.653Z,512.00
2023-05-04T03:48:22.521Z,503.00
2023-05-04T03:49:21.729Z,507.00
2023-05-04T03:50:21.685Z,501.00
2023-05-04T03:51:21.598Z,517.00
2023-05-04T03:52:22.112Z,513.00
2023-05-04T03:53:21.598Z,513.00
2023-05-04T03:54:21.571Z,517.00
2023-05-04T03:55:21.519Z,513.00
2023-05-04T03:56:21.493Z,516.00
2023-05-04T03:57:22.486Z,510.00
2023-05-04T03:58:21.465Z,519.00
2023-05-04T03:59:22.657Z,510.00
2023-05-04T04:00:21.486Z,519.00
2023-05-04T04:01:21.455Z,519.00
2023-05-04T04:02:36.117Z,512.00
2023-05-04T04:03:21.932Z,514.00
2023-05-04T04:04:21.560Z,516.00
2023-05-04T04:05:21.420Z,517.00
2023-05-04T04:06:21.584Z,514.00
2023-05-04T04:07:21.485Z,521.00
2023-05-04T04:08:21.534Z,518.00
2023-05-04T04:09:21.468Z,517.00
2023-05-04T04:10:21.444Z,514.00
2023-05-04T04:11:21.469Z,518.00
2023-05-04T04:12:21.688Z,518.00
2023-05-04T04:13:21.538Z,512.00
2023-05-04T04:14:21.521Z,518.00
2023-05-04T04:15:21.654Z,515.00
2023-05-04T04:16:21.729Z,516.00
2023-05-04T04:17:21.540Z,520.00
2023-05-04T04:18:21.389Z,518.00
2023-05-04T04:19:21.578Z,519.00
2023-05-04T04:20:21.352Z,503.00
2023-05-04T04:21:21.329Z,519.00
2023-05-04T04:22:21.602Z,518.00
2023-05-04T04:23:21.424Z,519.00
2023-05-04T04:24:21.344Z,513.00
2023-05-04T04:25:21.416Z,513.00
2023-05-04T04:26:21.352Z,505.00
2023-05-04T04:27:21.332Z,516.00
2023-05-04T04:28:22.445Z,514.00
2023-05-04T04:29:21.261Z,516.00
2023-05-04T04:30:21.446Z,511.00
2023-05-04T04:31:21.299Z,518.00
2023-05-04T04:32:21.543Z,514.00
2023-05-04T04:33:21.267Z,514.00
2023-05-04T04:34:21.218Z,510.00
2023-05-04T04:35:21.397Z,513.00
2023-05-04T04:36:21.199Z,514.00
2023-05-04T04:37:21.313Z,513.00
2023-05-04T04:38:21.261Z,511.00
2023-05-04T04:39:21.246Z,504.00
2023-05-04T04:40:21.266Z,519.00
2023-05-04T04:41:21.175Z,521.00
2023-05-04T04:42:22.242Z,508.00
2023-05-04T04:43:22.230Z,516.00
2023-05-04T04:44:21.135Z,517.00
2023-05-04T04:45:21.198Z,518.00
2023-05-04T04:46:21.357Z,511.00
2023-05-04T04:47:21.188Z,515.00
2023-05-04T04:48:22.134Z,513.00
2023-05-04T04:49:21.263Z,517.00
2023-05-04T04:50:21.115Z,511.00
2023-05-04T04:51:21.142Z,517.00
2023-05-04T04:52:21.142Z,518.00
2023-05-04T04:53:21.172Z,517.00
2023-05-04T04:54:21.160Z,511.00
2023-05-04T04:55:21.020Z,508.00
2023-05-04T04:56:22.152Z,511.00
2023-05-04T04:57:21.190Z,518.00
2023-05-04T04:58:21.083Z,517.00
2023-05-04T04:59:21.057Z,516.00
2023-05-04T05:00:21.998Z,518.00
2023-05-04T05:01:21.186Z,514.00
2023-05-04T05:02:21.112Z,510.00
2023-05-04T05:03:21.024Z,520.00
2023-05-04T05:04:21.006Z,518.00
2023-05-04T05:05:21.089Z,509.00
2023-05-04T05:06:21.021Z,510.00
2023-05-04T05:07:20.958Z,511.00
2023-05-04T05:08:21.037Z,513.00
2023-05-04T05:09:20.974Z,516.00
2023-05-04T05:10:21.102Z,519.00
2023-05-04T05:11:21.022Z,512.00
2023-05-04T05:12:20.962Z,515.00
2023-05-04T05:13:21.019Z,518.00
2023-05-04T05:14:20.966Z,515.00
2023-05-04T05:15:20.977Z,519.00
2023-05-04T05:16:20.988Z,516.00
2023-05-04T05:17:20.982Z,507.00
2023-05-04T05:18:20.972Z,516.00
2023-05-04T05:19:21.034Z,517.00
2023-05-04T05:20:21.866Z,519.00
2023-05-04T05:21:20.979Z,514.00
2023-05-04T05:22:21.084Z,513.00
2023-05-04T05:23:22.296Z,517.00
2023-05-04T05:24:20.848Z,517.00
2023-05-04T05:25:20.806Z,511.00
2023-05-04T05:26:20.836Z,511.00
2023-05-04T05:27:20.961Z,513.00
2023-05-04T05:28:20.794Z,503.00
2023-05-04T05:29:20.918Z,515.00
2023-05-04T05:30:20.879Z,513.00
2023-05-04T05:31:21.028Z,512.00
2023-05-04T05:32:20.934Z,513.00
2023-05-04T05:33:20.924Z,510.00
2023-05-04T05:34:21.078Z,508.00
2023-05-04T05:35:21.083Z,505.00
2023-05-04T05:36:21.021Z,502.00
2023-05-04T05:37:21.422Z,506.00
2023-05-04T05:38:21.155Z,513.00
2023-05-04T05:39:21.810Z,509.00
2023-05-04T05:40:21.907Z,501.00
2023-05-04T05:41:21.765Z,505.00
2023-05-04T05:42:21.467Z,505.00
2023-05-04T05:43:21.435Z,509.00
2023-05-04T05:44:21.366Z,504.00
2023-05-04T05:45:21.259Z,508.00
2023-05-04T05:46:21.422Z,514.00
2023-05-04T05:47:21.312Z,515.00
2023-05-04T05:48:21.793Z,521.00
2023-05-04T05:49:21.872Z,514.00
2023-05-04T05:50:23.086Z,526.00
2023-05-04T05:51:21.595Z,533.00
2023-05-04T05:52:21.675Z,539.00
2023-05-04T05:53:21.456Z,540.00
2023-05-04T05:54:22.496Z,547.00
2023-05-04T05:55:21.594Z,540.00
2023-05-04T05:56:21.646Z,549.00
2023-05-04T05:57:21.565Z,561.00
2023-05-04T05:58:21.873Z,561.00
2023-05-04T05:59:22.419Z,562.00
2023-05-04T06:00:21.501Z,562.00
2023-05-04T06:01:21.415Z,568.00
2023-05-04T06:02:21.626Z,578.00
2023-05-04T06:03:21.645Z,587.00
2023-05-04T06:04:21.564Z,605.00
2023-05-04T06:05:21.539Z,627.00
2023-05-04T06:09:00.080Z,500.00
2023-05-04T06:09:59.818Z,500.00
2023-05-04T06:11:00.955Z,500.00
2023-05-04T06:11:59.420Z,500.00
2023-05-04T06:13:00.266Z,500.00
2023-05-04T06:14:01.241Z,500.00
2023-05-04T06:16:21.103Z,500.00
2023-05-04T06:17:19.947Z,500.00
2023-05-04T06:18:18.238Z,500.00
2023-05-04T06:19:21.764Z,500.00
2023-05-04T06:20:19.280Z,500.00
2023-05-04T06:21:19.069Z,500.00
2023-05-04T06:22:18.318Z,500.00
2023-05-04T06:23:18.238Z,500.00
2023-05-04T06:24:18.665Z,500.00
2023-05-04T06:25:18.939Z,509.00
2023-05-04T06:26:18.757Z,509.00
2023-05-04T06:27:20.406Z,505.00
2023-05-04T06:28:19.003Z,512.00
2023-05-04T06:29:18.310Z,509.00
2023-05-04T06:30:18.552Z,518.00
2023-05-04T06:31:21.046Z,507.00
2023-05-04T06:32:18.251Z,507.00
2023-05-04T06:33:18.733Z,508.00
2023-05-04T06:34:19.270Z,506.00
2023-05-04T06:35:18.234Z,507.00
2023-05-04T06:36:18.221Z,509.00
2023-05-04T06:37:18.505Z,511.00
2023-05-04T06:38:19.702Z,516.00
2023-05-04T06:39:24.263Z,507.00
2023-05-04T06:40:19.086Z,508.00
2023-05-04T06:41:19.240Z,512.00
2023-05-04T06:42:19.519Z,508.00
2023-05-04T06:43:19.597Z,513.00
2023-05-04T06:44:18.740Z,508.00
2023-05-04T06:45:19.155Z,513.00
2023-05-04T06:46:23.134Z,519.00
2023-05-04T06:47:18.976Z,508.00
2023-05-04T06:48:19.818Z,509.00
2023-05-04T06:49:20.803Z,514.00
2023-05-04T06:52:59.171Z,500.00
2023-05-04T07:13:08.021Z,500.00
2023-05-04T07:14:09.787Z,500.00
2023-05-04T07:17:00.149Z,500.00
2023-05-04T07:18:01.195Z,500.00
2023-05-04T07:19:07.961Z,500.00
2023-05-04T07:20:03.981Z,500.00
2023-05-04T07:25:44.742Z,500.00
2023-05-04T07:28:03.054Z,500.00
2023-05-04T07:29:04.110Z,500.00
2023-05-04T07:30:03.942Z,500.00
2023-05-04T07:31:06.211Z,500.00
2023-05-04T07:32:03.418Z,500.00
2023-05-04T07:33:03.256Z,500.00
2023-05-04T07:34:09.355Z,500.00
2023-05-04T07:35:12.293Z,500.00
2023-05-04T07:36:13.597Z,500.00
2023-05-04T07:37:05.747Z,500.00
2023-05-04T07:38:17.793Z,500.00
2023-05-04T07:39:51.374Z,500.00
2023-05-04T07:40:51.318Z,500.00
2023-05-04T07:41:52.594Z,500.00
2023-05-04T07:44:43.600Z,500.00
2023-05-04T07:45:43.246Z,500.00
2023-05-04T07:46:42.911Z,500.00
2023-05-04T07:47:41.750Z,500.00
2023-05-04T07:48:44.228Z,500.00
2023-05-04T07:49:48.341Z,500.00
2023-05-04T07:50:44.932Z,500.00
2023-05-04T07:51:39.979Z,500.00
2023-05-04T07:52:42.780Z,500.00
2023-05-04T07:54:59.855Z,500.00
2023-05-04T07:55:58.602Z,500.00
2023-05-04T07:57:02.933Z,500.00
2023-05-04T07:58:02.611Z,500.00
2023-05-04T08:01:45.689Z,500.00
2023-05-04T08:02:53.766Z,500.00
2023-05-04T08:03:59.539Z,500.00
2023-05-04T08:05:00.608Z,500.00
2023-05-04T08:08:42.061Z,500.00
2023-05-04T08:09:37.811Z,500.00
2023-05-04T08:10:37.228Z,500.00
2023-05-04T08:11:36.045Z,500.00
2023-05-04T08:13:56.282Z,500.00
2023-05-04T08:16:17.775Z,500.00
2023-05-04T08:17:19.348Z,500.00
2023-05-04T08:18:24.992Z,500.00
2023-05-04T08:19:18.453Z,500.00
2023-05-04T08:20:21.175Z,500.00
2023-05-04T08:21:19.284Z,500.00
2023-05-04T08:26:26.087Z,500.00
2023-05-04T08:33:06.929Z,500.00
2023-05-04T08:34:10.332Z,500.00
2023-05-04T08:36:26.385Z,500.00
2023-05-04T08:43:03.401Z,500.00
2023-05-04T08:45:46.321Z,500.00
2023-05-04T08:46:45.395Z,500.00
2023-05-04T08:47:45.830Z,500.00
2023-05-04T08:48:46.928Z,500.00
2023-05-04T08:49:46.383Z,500.00
2023-05-04T08:50:45.765Z,500.00
2023-05-04T08:51:44.757Z,500.00
2023-05-04T08:52:45.240Z,500.00
2023-05-04T08:53:45.392Z,500.00
2023-05-04T08:54:46.796Z,500.00
2023-05-04T08:55:45.092Z,500.00
2023-05-04T08:56:44.706Z,500.00
2023-05-04T08:57:46.176Z,500.00
2023-05-04T08:58:46.394Z,500.00
2023-05-04T08:59:45.087Z,500.00
2023-05-04T09:00:45.345Z,500.00
2023-05-04T09:01:45.191Z,500.00
2023-05-04T09:02:46.753Z,500.00
2023-05-04T09:03:45.659Z,500.00
2023-05-04T09:04:44.815Z,500.00
2023-05-04T09:05:45.649Z,500.00
2023-05-04T09:06:46.728Z,500.00
2023-05-04T09:07:51.108Z,500.00
2023-05-04T09:08:48.229Z,500.00
2023-05-04T09:09:57.121Z,500.00
2023-05-04T09:10:48.862Z,500.00
2023-05-04T09:11:46.988Z,500.00
2023-05-04T09:12:44.868Z,500.00
2023-05-04T09:13:45.214Z,500.00
2023-05-04T09:14:45.367Z,500.00
2023-05-04T09:15:45.806Z,500.00
2023-05-04T09:16:46.753Z,500.00
2023-05-04T09:17:57.064Z,504.00
2023-05-04T09:18:46.053Z,504.00
2023-05-04T09:21:04.779Z,500.00
2023-05-04T09:22:04.497Z,500.00
2023-05-04T09:23:05.293Z,500.00
2023-05-04T09:24:04.402Z,500.00
2023-05-04T09:25:04.397Z,500.00
2023-05-04T09:26:05.705Z,500.00
2023-05-04T09:27:06.464Z,500.00
2023-05-04T09:28:05.541Z,500.00
2023-05-04T09:29:04.704Z,500.00
2023-05-04T09:30:04.455Z,500.00
2023-05-04T09:31:05.329Z,500.00
2023-05-04T09:32:04.327Z,500.00
2023-05-04T09:33:05.091Z,500.00
2023-05-04T09:34:04.051Z,500.00
2023-05-04T09:35:04.391Z,500.00
2023-05-04T09:36:04.147Z,500.00
2023-05-04T09:37:03.936Z,508.00
2023-05-04T09:38:04.069Z,508.00
2023-05-04T09:39:07.133Z,509.00
2023-05-04T09:40:04.322Z,509.00
2023-05-04T09:41:04.594Z,510.00
2023-05-04T09:42:04.150Z,509.00
2023-05-04T09:43:04.100Z,499.00
2023-05-04T09:44:04.052Z,513.00
2023-05-04T09:45:04.607Z,510.00
2023-05-04T09:46:04.216Z,509.00
2023-05-04T09:47:05.005Z,508.00
2023-05-04T09:48:03.965Z,530.00
2023-05-04T09:49:04.059Z,499.00
2023-05-04T09:56:15.980Z,500.00
2023-05-04T09:59:19.036Z,500.00
2023-05-04T10:00:18.161Z,500.00
2023-05-04T10:01:22.486Z,500.00
2023-05-04T10:05:56.543Z,500.00
2023-05-04T10:06:56.604Z,500.00
2023-05-04T10:07:57.054Z,500.00
2023-05-04T10:14:48.259Z,500.00
2023-05-04T10:19:16.229Z,500.00
2023-05-04T10:20:16.647Z,500.00
2023-05-04T10:21:16.402Z,500.00
2023-05-04T10:22:15.493Z,500.00
2023-05-04T10:23:16.267Z,500.00
2023-05-04T10:24:15.631Z,500.00
2023-05-04T10:25:16.642Z,500.00
2023-05-04T10:26:15.751Z,500.00
2023-05-04T10:27:15.534Z,502.00
2023-05-04T10:28:15.573Z,500.00
2023-05-04T10:29:16.704Z,500.00
2023-05-04T10:30:16.230Z,501.00
2023-05-04T10:31:16.541Z,505.00
2023-05-04T10:32:16.320Z,505.00
2023-05-04T10:33:16.274Z,490.00
2023-05-04T10:34:15.955Z,491.00
2023-05-04T10:35:16.063Z,470.00
2023-05-04T10:36:16.044Z,470.00
2023-05-04T10:37:16.469Z,502.00
2023-05-04T10:38:17.262Z,502.00
2023-05-04T10:39:18.724Z,503.00
2023-05-04T10:40:18.507Z,503.00
2023-05-04T10:41:17.549Z,503.00
2023-05-04T10:42:16.797Z,503.00
2023-05-04T10:43:18.231Z,491.00
2023-05-04T10:44:17.520Z,503.00
2023-05-04T10:45:17.082Z,503.00
2023-05-04T10:46:18.678Z,496.00
2023-05-04T10:47:18.527Z,502.00
2023-05-04T10:48:17.909Z,503.00
2023-05-04T10:49:21.110Z,495.00
2023-05-04T10:50:18.729Z,503.00
2023-05-04T10:51:22.855Z,503.00
2023-05-04T10:52:18.611Z,503.00
2023-05-04T10:53:18.648Z,503.00
2023-05-04T10:54:17.143Z,502.00
2023-05-04T10:55:19.919Z,502.00
2023-05-04T10:56:18.080Z,503.00
2023-05-04T10:57:18.350Z,503.00
2023-05-04T10:58:20.412Z,502.00
2023-05-04T10:59:21.039Z,400.00
2023-05-04T11:00:17.196Z,400.00
2023-05-04T11:01:16.715Z,400.00
2023-05-04T11:02:16.563Z,400.00
2023-05-04T11:03:16.564Z,400.00
2023-05-04T11:04:16.725Z,400.00
2023-05-04T11:05:17.685Z,400.00
2023-05-04T11:06:16.759Z,400.00
2023-05-04T11:07:16.622Z,441.00
2023-05-04T11:08:16.679Z,551.00
2023-05-04T11:09:16.587Z,548.00
2023-05-04T11:10:16.576Z,575.00
2023-05-04T11:11:16.487Z,546.00
2023-05-04T11:12:16.551Z,580.00
2023-05-04T11:13:18.968Z,589.00
2023-05-04T11:14:16.564Z,601.00
2023-05-04T11:15:18.145Z,610.00
2023-05-04T11:16:17.382Z,611.00
2023-05-04T11:18:17.929Z,615.00
2023-05-04T11:19:16.796Z,611.00
2023-05-04T11:20:18.225Z,616.00
2023-05-04T11:21:16.792Z,623.00
2023-05-04T11:22:16.550Z,637.00
2023-05-04T11:23:16.949Z,651.00
2023-05-04T11:24:16.524Z,643.00
2023-05-04T11:25:17.334Z,648.00
2023-05-04T11:26:17.386Z,647.00
2023-05-04T11:27:17.129Z,657.00
2023-05-04T11:28:17.917Z,656.00
2023-05-04T11:29:17.833Z,659.00
2023-05-04T11:30:17.073Z,665.00
2023-05-04T11:31:17.936Z,664.00
2023-05-04T11:32:17.326Z,659.00
2023-05-04T11:33:18.031Z,671.00
2023-05-04T11:34:17.661Z,668.00
2023-05-04T11:35:17.233Z,680.00
2023-05-04T11:36:17.500Z,682.00
2023-05-04T11:37:16.893Z,681.00
2023-05-04T11:38:16.801Z,695.00
2023-05-04T11:39:17.994Z,687.00
2023-05-04T11:40:16.723Z,681.00
2023-05-04T11:41:16.708Z,687.00
2023-05-04T11:42:16.749Z,708.00
2023-05-04T11:43:16.775Z,700.00
2023-05-04T11:44:16.893Z,697.00
2023-05-04T11:45:16.844Z,703.00
2023-05-04T11:46:16.987Z,697.00
2023-05-04T11:47:17.000Z,716.00
2023-05-04T11:48:18.607Z,713.00
2023-05-04T11:49:17.084Z,712.00
2023-05-04T11:50:17.213Z,704.00
2023-05-04T11:51:17.135Z,720.00
2023-05-04T11:52:17.166Z,724.00
2023-05-04T11:53:17.185Z,711.00
2023-05-04T11:54:17.199Z,719.00
2023-05-04T11:55:17.260Z,718.00
2023-05-04T11:56:17.301Z,730.00
2023-05-04T11:57:17.515Z,726.00
2023-05-04T11:58:17.349Z,726.00
2023-05-04T11:59:17.380Z,732.00
2023-05-04T12:00:17.451Z,730.00
2023-05-04T12:01:17.475Z,726.00
2023-05-04T12:02:17.513Z,737.00
2023-05-04T12:03:17.690Z,742.00
2023-05-04T12:04:17.627Z,731.00
2023-05-04T12:05:17.632Z,744.00
2023-05-04T12:06:17.686Z,745.00
2023-05-04T12:07:17.713Z,735.00
2023-05-04T12:08:17.746Z,744.00
2023-05-04T12:09:17.839Z,733.00
2023-05-04T12:10:17.884Z,744.00
2023-05-04T12:11:17.864Z,752.00
2023-05-04T12:12:17.945Z,745.00
2023-05-04T12:13:18.050Z,742.00
2023-05-04T12:14:18.070Z,741.00
2023-05-04T12:15:18.096Z,746.00
2023-05-04T12:16:18.145Z,744.00
2023-05-04T12:17:18.156Z,742.00
2023-05-04T12:18:18.288Z,737.00
2023-05-04T12:19:18.238Z,766.00
2023-05-04T12:20:18.249Z,744.00
2023-05-04T12:21:18.315Z,743.00
2023-05-04T12:22:18.343Z,749.00
2023-05-04T12:23:18.376Z,746.00
2023-05-04T12:24:18.436Z,751.00
2023-05-04T12:25:18.512Z,741.00
2023-05-04T12:26:19.879Z,751.00
2023-05-04T12:27:18.530Z,758.00
2023-05-04T12:28:18.580Z,753.00
2023-05-04T12:29:18.674Z,758.00
2023-05-04T12:30:18.646Z,737.00
2023-05-04T12:31:18.777Z,755.00
2023-05-04T12:32:18.754Z,749.00
2023-05-04T12:33:18.806Z,745.00
2023-05-04T12:34:18.861Z,750.00
2023-05-04T12:35:18.875Z,765.00
2023-05-04T12:36:18.933Z,747.00
2023-05-04T12:37:18.950Z,767.00
2023-05-04T12:38:18.991Z,751.00
2023-05-04T12:39:19.480Z,764.00
2023-05-04T12:40:28.422Z,749.00
2023-05-04T12:41:20.139Z,751.00
2023-05-04T12:42:19.072Z,753.00
2023-05-04T12:43:20.807Z,756.00
2023-05-04T12:44:19.064Z,753.00
2023-05-04T12:45:19.090Z,780.00
2023-05-04T12:46:19.106Z,754.00
2023-05-04T12:47:19.067Z,760.00
2023-05-04T12:48:19.089Z,763.00
2023-05-04T12:49:19.509Z,758.00
2023-05-04T12:50:18.998Z,757.00
2023-05-04T12:51:19.139Z,763.00
2023-05-04T12:52:19.124Z,779.00
2023-05-04T12:53:19.200Z,767.00
2023-05-04T12:54:19.210Z,758.00
2023-05-04T12:55:19.229Z,762.00
2023-05-04T12:56:19.270Z,768.00
2023-05-04T12:57:19.443Z,760.00
2023-05-04T12:58:19.413Z,767.00
2023-05-04T12:59:19.497Z,770.00
2023-05-04T13:00:19.451Z,759.00
2023-05-04T13:01:19.611Z,754.00
2023-05-04T13:02:19.606Z,762.00
2023-05-04T13:03:19.787Z,776.00
2023-05-04T13:04:19.631Z,779.00
2023-05-04T13:05:19.684Z,770.00
2023-05-04T13:06:19.870Z,775.00
2023-05-04T13:07:19.766Z,765.00
2023-05-04T13:08:19.915Z,760.00
2023-05-04T13:09:19.922Z,773.00
2023-05-04T13:10:20.464Z,764.00
2023-05-04T13:11:20.006Z,764.00
2023-05-04T13:12:20.077Z,769.00
2023-05-04T13:13:20.061Z,773.00
2023-05-04T13:14:20.087Z,775.00
2023-05-04T13:15:20.105Z,774.00
2023-05-04T13:16:20.263Z,776.00
2023-05-04T13:17:20.195Z,760.00
2023-05-04T13:18:20.368Z,779.00
2023-05-04T13:19:20.362Z,775.00
2023-05-04T13:20:20.338Z,766.00
2023-05-04T13:21:20.486Z,775.00
2023-05-04T13:22:20.429Z,783.00
2023-05-04T13:23:20.483Z,774.00
2023-05-04T13:24:20.598Z,780.00
2023-05-04T13:25:20.603Z,774.00
2023-05-04T13:26:20.623Z,776.00
2023-05-04T13:27:20.733Z,759.00
2023-05-04T13:28:20.724Z,770.00
2023-05-04T13:29:20.780Z,771.00
2023-05-04T13:30:20.810Z,760.00
2023-05-04T13:31:21.010Z,773.00
2023-05-04T13:32:20.932Z,781.00
2023-05-04T13:33:29.419Z,776.00
2023-05-04T13:34:22.022Z,777.00
2023-05-04T13:35:20.959Z,780.00
2023-05-04T13:36:20.956Z,776.00
2023-05-04T13:37:20.940Z,768.00
2023-05-04T13:38:20.934Z,777.00
2023-05-04T13:39:20.950Z,770.00
2023-05-04T13:40:21.087Z,763.00
2023-05-04T13:41:21.521Z,780.00
2023-05-04T13:42:20.920Z,765.00
2023-05-04T13:43:21.042Z,774.00
2023-05-04T13:44:21.077Z,795.00
2023-05-04T13:45:21.051Z,760.00
2023-05-04T13:46:21.133Z,765.00
2023-05-04T13:47:21.161Z,793.00
2023-05-04T13:48:21.184Z,761.00
2023-05-04T13:49:21.288Z,764.00
2023-05-04T13:50:21.307Z,763.00
2023-05-04T13:51:21.420Z,779.00
2023-05-04T13:52:21.435Z,766.00
2023-05-04T13:53:21.470Z,771.00
2023-05-04T13:54:22.091Z,776.00
2023-05-04T13:55:21.597Z,790.00
2023-05-04T13:56:21.652Z,778.00
2023-05-04T13:57:21.698Z,764.00
2023-05-04T13:58:21.725Z,788.00
2023-05-04T13:59:22.053Z,762.00